sensor_id;sensor_type;location;lat;lon;timestamp;pressure;altitude;pressure_sealevel;temperature;humidity
32735;BME280;19112;51.076;3.706;2023-01-26T00:01:12;102383.03;;;4.64;78.24
32735;BME280;19112;51.076;3.706;2023-01-26T00:03:38;102426.75;;;4.90;78.43
32735;BME280;19112;51.076;3.706;2023-01-26T00:06:10;102370.16;;;4.65;78.42
32735;BME280;19112;51.076;3.706;2023-01-26T00:08:45;102367.78;;;4.68;78.70
32735;BME280;19112;51.076;3.706;2023-01-26T00:11:15;102351.97;;;4.55;78.76
32735;BME280;19112;51.076;3.706;2023-01-26T00:13:42;102333.66;;;4.54;78.57
32735;BME280;19112;51.076;3.706;2023-01-26T00:16:13;102413.84;;;5.02;78.45
32735;BME280;19112;51.076;3.706;2023-01-26T00:18:41;102346.63;;;4.64;78.34
32735;BME280;19112;51.076;3.706;2023-01-26T00:21:11;102431.75;;;5.09;78.49
32735;BME280;19112;51.076;3.706;2023-01-26T00:23:37;102413.66;;;5.10;78.13
32735;BME280;19112;51.076;3.706;2023-01-26T00:26:06;102356.56;;;4.80;78.16
32735;BME280;19112;51.076;3.706;2023-01-26T00:28:32;102406.41;;;5.06;78.08
32735;BME280;19112;51.076;3.706;2023-01-26T00:31:12;102403.94;;;5.08;78.40
32735;BME280;19112;51.076;3.706;2023-01-26T00:33:39;102406.47;;;5.18;78.23
32735;BME280;19112;51.076;3.706;2023-01-26T00:36:05;102377.00;;;5.07;78.18
32735;BME280;19112;51.076;3.706;2023-01-26T00:38:31;102405.53;;;5.28;78.04
32735;BME280;19112;51.076;3.706;2023-01-26T00:40:57;102404.47;;;5.25;77.73
32735;BME280;19112;51.076;3.706;2023-01-26T00:43:23;102159.34;;;3.88;78.02
32735;BME280;19112;51.076;3.706;2023-01-26T00:45:48;102402.41;;;5.21;78.14
32735;BME280;19112;51.076;3.706;2023-01-26T00:48:15;102292.94;;;4.54;78.44
32735;BME280;19112;51.076;3.706;2023-01-26T00:50:40;102401.75;;;5.24;78.54
32735;BME280;19112;51.076;3.706;2023-01-26T00:53:06;102279.63;;;4.61;78.60
32735;BME280;19112;51.076;3.706;2023-01-26T00:55:32;102346.09;;;4.90;78.50
32735;BME280;19112;51.076;3.706;2023-01-26T00:58:03;102300.28;;;4.70;78.73
32735;BME280;19112;51.076;3.706;2023-01-26T01:00:31;102245.13;;;4.42;78.28
32735;BME280;19112;51.076;3.706;2023-01-26T01:02:58;102395.22;;;5.29;78.27
32735;BME280;19112;51.076;3.706;2023-01-26T01:05:27;102180.47;;;4.03;78.30
32735;BME280;19112;51.076;3.706;2023-01-26T01:07:53;102387.31;;;5.28;78.63
32735;BME280;19112;51.076;3.706;2023-01-26T01:10:19;102387.31;;;5.28;78.41
32735;BME280;19112;51.076;3.706;2023-01-26T01:12:45;102251.56;;;4.57;78.22
32735;BME280;19112;51.076;3.706;2023-01-26T01:15:11;102344.59;;;5.04;78.30
32735;BME280;19112;51.076;3.706;2023-01-26T01:17:37;102372.91;;;5.11;78.81
32735;BME280;19112;51.076;3.706;2023-01-26T01:20:05;102333.88;;;4.89;78.66
32735;BME280;19112;51.076;3.706;2023-01-26T01:22:33;102379.44;;;5.06;79.38
32735;BME280;19112;51.076;3.706;2023-01-26T01:24:59;102369.13;;;4.95;79.32
32735;BME280;19112;51.076;3.706;2023-01-26T01:27:25;102237.69;;;4.25;79.29
32735;BME280;19112;51.076;3.706;2023-01-26T01:29:52;102374.13;;;5.04;79.65
32735;BME280;19112;51.076;3.706;2023-01-26T01:32:18;102331.47;;;4.80;79.15
32735;BME280;19112;51.076;3.706;2023-01-26T01:34:48;102165.25;;;4.07;78.87
32735;BME280;19112;51.076;3.706;2023-01-26T01:37:16;102272.47;;;4.69;79.23
32735;BME280;19112;51.076;3.706;2023-01-26T01:39:42;102165.00;;;4.04;79.31
32735;BME280;19112;51.076;3.706;2023-01-26T01:42:08;102319.31;;;4.91;79.54
32735;BME280;19112;51.076;3.706;2023-01-26T01:44:36;102280.13;;;4.67;79.75
32735;BME280;19112;51.076;3.706;2023-01-26T01:49:33;102359.31;;;5.25;79.38
32735;BME280;19112;51.076;3.706;2023-01-26T01:52:05;102213.19;;;4.43;79.30
32735;BME280;19112;51.076;3.706;2023-01-26T01:55:07;102357.88;;;5.29;79.24
32735;BME280;19112;51.076;3.706;2023-01-26T01:57:55;102298.06;;;4.96;79.50
32735;BME280;19112;51.076;3.706;2023-01-26T02:00:23;102117.13;;;3.90;79.14
32735;BME280;19112;51.076;3.706;2023-01-26T02:03:05;102167.38;;;4.23;79.11
32735;BME280;19112;51.076;3.706;2023-01-26T02:06:04;102344.69;;;5.27;79.42
32735;BME280;19112;51.076;3.706;2023-01-26T02:08:47;102345.28;;;5.23;79.10
32735;BME280;19112;51.076;3.706;2023-01-26T02:11:33;102178.38;;;4.31;78.75
32735;BME280;19112;51.076;3.706;2023-01-26T02:14:07;102270.94;;;4.83;79.27
32735;BME280;19112;51.076;3.706;2023-01-26T02:16:34;102344.69;;;5.27;79.65
32735;BME280;19112;51.076;3.706;2023-01-26T02:19:00;102354.03;;;5.35;79.26
32735;BME280;19112;51.076;3.706;2023-01-26T02:21:26;102198.59;;;4.45;79.06
32735;BME280;19112;51.076;3.706;2023-01-26T02:24:21;102358.94;;;5.42;79.50
32735;BME280;19112;51.076;3.706;2023-01-26T02:26:47;102329.22;;;5.29;79.22
32735;BME280;19112;51.076;3.706;2023-01-26T02:29:13;102353.06;;;5.45;79.32
32735;BME280;19112;51.076;3.706;2023-01-26T02:31:39;102310.63;;;5.24;79.01
32735;BME280;19112;51.076;3.706;2023-01-26T02:34:05;102355.78;;;5.46;79.05
32735;BME280;19112;51.076;3.706;2023-01-26T02:36:33;102146.53;;;4.33;78.92
32735;BME280;19112;51.076;3.706;2023-01-26T02:41:50;102373.91;;;5.45;79.20
32735;BME280;19112;51.076;3.706;2023-01-26T02:44:36;102345.88;;;5.31;79.14
32735;BME280;19112;51.076;3.706;2023-01-26T02:47:15;102044.09;;;3.76;78.88
32735;BME280;19112;51.076;3.706;2023-01-26T02:49:41;102359.31;;;5.59;79.04
32735;BME280;19112;51.076;3.706;2023-01-26T02:52:21;102333.03;;;5.44;79.06
32735;BME280;19112;51.076;3.706;2023-01-26T02:54:48;102272.66;;;5.16;78.71
32735;BME280;19112;51.076;3.706;2023-01-26T02:57:32;102350.97;;;5.63;78.82
32735;BME280;19112;51.076;3.706;2023-01-26T03:00:00;102361.84;;;5.69;78.98
32735;BME280;19112;51.076;3.706;2023-01-26T03:02:26;102207.84;;;4.85;78.59
32735;BME280;19112;51.076;3.706;2023-01-26T03:04:51;102357.22;;;5.65;79.03
32735;BME280;19112;51.076;3.706;2023-01-26T03:07:17;102290.47;;;5.21;78.69
32735;BME280;19112;51.076;3.706;2023-01-26T03:09:43;102171.00;;;4.47;78.56
32735;BME280;19112;51.076;3.706;2023-01-26T03:12:09;102346.13;;;5.67;79.00
32735;BME280;19112;51.076;3.706;2023-01-26T03:14:35;102202.50;;;4.84;78.47
32735;BME280;19112;51.076;3.706;2023-01-26T03:17:01;102334.41;;;5.50;78.55
32735;BME280;19112;51.076;3.706;2023-01-26T03:19:26;102222.88;;;4.89;78.59
32735;BME280;19112;51.076;3.706;2023-01-26T03:22:11;102044.34;;;4.01;78.37
32735;BME280;19112;51.076;3.706;2023-01-26T03:24:56;102345.88;;;5.64;78.78
32735;BME280;19112;51.076;3.706;2023-01-26T03:27:46;102299.03;;;5.42;78.97
32735;BME280;19112;51.076;3.706;2023-01-26T03:30:16;102198.72;;;4.90;78.58
32735;BME280;19112;51.076;3.706;2023-01-26T03:32:43;102345.88;;;5.64;78.51
32735;BME280;19112;51.076;3.706;2023-01-26T03:35:09;102337.84;;;5.61;78.81
32735;BME280;19112;51.076;3.706;2023-01-26T03:37:43;102336.06;;;5.72;78.94
32735;BME280;19112;51.076;3.706;2023-01-26T03:40:11;102155.28;;;4.67;78.71
32735;BME280;19112;51.076;3.706;2023-01-26T03:42:56;102054.31;;;4.06;78.53
32735;BME280;19112;51.076;3.706;2023-01-26T03:45:40;102152.13;;;4.71;78.45
32735;BME280;19112;51.076;3.706;2023-01-26T03:48:25;102253.47;;;5.25;78.97
32735;BME280;19112;51.076;3.706;2023-01-26T03:51:10;102158.25;;;4.72;78.64
32735;BME280;19112;51.076;3.706;2023-01-26T03:53:54;102189.97;;;4.90;78.93
32735;BME280;19112;51.076;3.706;2023-01-26T03:56:38;102328.56;;;5.65;79.02
32735;BME280;19112;51.076;3.706;2023-01-26T03:59:06;102258.25;;;5.31;79.06
32735;BME280;19112;51.076;3.706;2023-01-26T04:01:46;102079.06;;;4.35;79.01
32735;BME280;19112;51.076;3.706;2023-01-26T04:04:31;102171.59;;;4.77;78.99
32735;BME280;19112;51.076;3.706;2023-01-26T04:07:15;102272.16;;;5.32;79.24
32735;BME280;19112;51.076;3.706;2023-01-26T04:10:00;102310.88;;;5.61;79.26
32735;BME280;19112;51.076;3.706;2023-01-26T04:12:26;102332.00;;;5.75;79.02
32735;BME280;19112;51.076;3.706;2023-01-26T04:14:51;102331.75;;;5.72;78.72
32735;BME280;19112;51.076;3.706;2023-01-26T04:17:35;102252.91;;;5.30;79.25
32735;BME280;19112;51.076;3.706;2023-01-26T04:20:19;102091.16;;;4.34;78.94
32735;BME280;19112;51.076;3.706;2023-01-26T04:23:04;102325.63;;;5.72;79.25
32735;BME280;19112;51.076;3.706;2023-01-26T04:25:30;102282.97;;;5.48;79.42
32735;BME280;19112;51.076;3.706;2023-01-26T04:27:56;102324.03;;;5.74;79.07
32735;BME280;19112;51.076;3.706;2023-01-26T04:30:21;102333.25;;;5.81;79.18
32735;BME280;19112;51.076;3.706;2023-01-26T04:32:47;102332.47;;;5.82;79.00
32735;BME280;19112;51.076;3.706;2023-01-26T04:35:15;102077.00;;;4.31;78.96
32735;BME280;19112;51.076;3.706;2023-01-26T04:37:41;102334.72;;;5.77;78.91
32735;BME280;19112;51.076;3.706;2023-01-26T04:40:07;102222.66;;;5.20;78.99
32735;BME280;19112;51.076;3.706;2023-01-26T04:42:34;102289.31;;;5.51;79.37
32735;BME280;19112;51.076;3.706;2023-01-26T04:44:59;102253.72;;;5.29;79.36
32735;BME280;19112;51.076;3.706;2023-01-26T04:47:25;102167.19;;;4.76;79.44
32735;BME280;19112;51.076;3.706;2023-01-26T04:49:51;102241.34;;;5.26;79.61
32735;BME280;19112;51.076;3.706;2023-01-26T04:52:17;102093.00;;;4.47;79.13
32735;BME280;19112;51.076;3.706;2023-01-26T04:54:42;102267.34;;;5.48;79.25
32735;BME280;19112;51.076;3.706;2023-01-26T04:57:08;102288.34;;;5.61;79.23
32735;BME280;19112;51.076;3.706;2023-01-26T04:59:34;102250.25;;;5.40;79.31
32735;BME280;19112;51.076;3.706;2023-01-26T05:02:00;102268.75;;;5.55;79.82
32735;BME280;19112;51.076;3.706;2023-01-26T05:04:26;102251.13;;;5.40;79.25
32735;BME280;19112;51.076;3.706;2023-01-26T05:06:51;102280.72;;;5.64;79.53
32735;BME280;19112;51.076;3.706;2023-01-26T05:09:17;102040.81;;;4.22;79.22
32735;BME280;19112;51.076;3.706;2023-01-26T05:11:43;102256.16;;;5.49;79.41
32735;BME280;19112;51.076;3.706;2023-01-26T05:14:09;102309.66;;;5.79;79.48
32735;BME280;19112;51.076;3.706;2023-01-26T05:16:34;102268.13;;;5.47;79.88
32735;BME280;19112;51.076;3.706;2023-01-26T05:19:00;102267.03;;;5.55;79.55
32735;BME280;19112;51.076;3.706;2023-01-26T05:21:26;102197.06;;;5.14;79.72
32735;BME280;19112;51.076;3.706;2023-01-26T05:23:53;102190.78;;;5.22;79.72
32735;BME280;19112;51.076;3.706;2023-01-26T05:26:19;102259.69;;;5.61;79.72
32735;BME280;19112;51.076;3.706;2023-01-26T05:28:45;102138.72;;;4.89;79.85
32735;BME280;19112;51.076;3.706;2023-01-26T05:31:11;101949.72;;;3.87;79.32
32735;BME280;19112;51.076;3.706;2023-01-26T05:33:37;102277.03;;;5.72;79.51
32735;BME280;19112;51.076;3.706;2023-01-26T05:36:06;102044.25;;;4.33;79.85
32735;BME280;19112;51.076;3.706;2023-01-26T05:38:33;102063.56;;;4.36;79.91
32735;BME280;19112;51.076;3.706;2023-01-26T05:40:59;102318.06;;;5.87;79.84
32735;BME280;19112;51.076;3.706;2023-01-26T05:43:25;102285.09;;;5.75;79.96
32735;BME280;19112;51.076;3.706;2023-01-26T05:45:51;102316.88;;;5.93;79.85
32735;BME280;19112;51.076;3.706;2023-01-26T05:48:17;102276.69;;;5.68;79.83
32735;BME280;19112;51.076;3.706;2023-01-26T05:50:42;102313.81;;;5.99;80.10
32735;BME280;19112;51.076;3.706;2023-01-26T05:53:08;102320.94;;;6.01;79.91
32735;BME280;19112;51.076;3.706;2023-01-26T05:55:34;102248.34;;;5.61;79.82
32735;BME280;19112;51.076;3.706;2023-01-26T05:58:00;102262.19;;;5.71;79.43
32735;BME280;19112;51.076;3.706;2023-01-26T06:00:26;102322.34;;;6.08;79.56
32735;BME280;19112;51.076;3.706;2023-01-26T06:02:51;102069.22;;;4.64;79.65
32735;BME280;19112;51.076;3.706;2023-01-26T06:05:17;102252.06;;;5.64;79.31
32735;BME280;19112;51.076;3.706;2023-01-26T06:07:43;102346.56;;;6.07;79.67
32735;BME280;19112;51.076;3.706;2023-01-26T06:10:10;102087.44;;;4.64;79.51
32735;BME280;19112;51.076;3.706;2023-01-26T06:12:36;102288.69;;;5.66;79.52
32735;BME280;19112;51.076;3.706;2023-01-26T06:15:04;102299.63;;;5.95;79.04
32735;BME280;19112;51.076;3.706;2023-01-26T06:17:31;102352.03;;;6.22;79.05
32735;BME280;19112;51.076;3.706;2023-01-26T06:19:56;102356.00;;;6.17;79.46
32735;BME280;19112;51.076;3.706;2023-01-26T06:22:23;102353.81;;;6.11;79.63
32735;BME280;19112;51.076;3.706;2023-01-26T06:24:48;102198.44;;;5.21;79.59
32735;BME280;19112;51.076;3.706;2023-01-26T06:27:16;102207.06;;;5.32;79.85
32735;BME280;19112;51.076;3.706;2023-01-26T06:29:43;102296.84;;;5.70;79.45
32735;BME280;19112;51.076;3.706;2023-01-26T06:32:11;102299.69;;;5.73;79.73
32735;BME280;19112;51.076;3.706;2023-01-26T06:34:37;102239.84;;;5.51;79.87
32735;BME280;19112;51.076;3.706;2023-01-26T06:37:03;102313.00;;;6.00;79.60
32735;BME280;19112;51.076;3.706;2023-01-26T06:39:28;102328.22;;;6.06;79.43
32735;BME280;19112;51.076;3.706;2023-01-26T06:41:54;102165.47;;;5.10;79.34
32735;BME280;19112;51.076;3.706;2023-01-26T06:44:20;102375.63;;;6.23;79.87
32735;BME280;19112;51.076;3.706;2023-01-26T06:46:46;102286.66;;;5.73;79.94
32735;BME280;19112;51.076;3.706;2023-01-26T06:49:12;102369.97;;;6.29;79.85
32735;BME280;19112;51.076;3.706;2023-01-26T06:51:53;102325.72;;;6.07;79.47
32735;BME280;19112;51.076;3.706;2023-01-26T06:54:20;102211.28;;;5.41;79.40
32735;BME280;19112;51.076;3.706;2023-01-26T06:56:46;102378.78;;;6.19;80.06
32735;BME280;19112;51.076;3.706;2023-01-26T06:59:12;102121.00;;;4.61;79.99
32735;BME280;19112;51.076;3.706;2023-01-26T07:01:43;102298.41;;;5.68;80.57
32735;BME280;19112;51.076;3.706;2023-01-26T07:04:10;102382.66;;;6.24;80.44
32735;BME280;19112;51.076;3.706;2023-01-26T07:06:36;102247.31;;;5.47;80.25
32735;BME280;19112;51.076;3.706;2023-01-26T07:09:03;102316.03;;;5.83;80.21
32735;BME280;19112;51.076;3.706;2023-01-26T07:11:29;102303.63;;;5.68;80.90
32735;BME280;19112;51.076;3.706;2023-01-26T07:13:57;102224.28;;;5.30;80.61
32735;BME280;19112;51.076;3.706;2023-01-26T07:16:23;102390.84;;;6.29;80.61
32735;BME280;19112;51.076;3.706;2023-01-26T07:18:49;102330.25;;;5.98;80.54
32735;BME280;19112;51.076;3.706;2023-01-26T07:21:17;102389.13;;;6.41;80.49
32735;BME280;19112;51.076;3.706;2023-01-26T07:23:44;102397.50;;;6.37;80.65
32735;BME280;19112;51.076;3.706;2023-01-26T07:26:10;102401.59;;;6.34;80.73
32735;BME280;19112;51.076;3.706;2023-01-26T07:28:36;102405.56;;;6.28;81.00
32735;BME280;19112;51.076;3.706;2023-01-26T07:31:04;102409.94;;;6.18;81.30
32735;BME280;19112;51.076;3.706;2023-01-26T07:33:32;102411.44;;;6.14;81.53
32735;BME280;19112;51.076;3.706;2023-01-26T07:35:59;102374.78;;;5.67;82.05
32735;BME280;19112;51.076;3.706;2023-01-26T07:38:26;102423.34;;;5.89;82.55
32735;BME280;19112;51.076;3.706;2023-01-26T07:40:54;102441.59;;;5.89;82.93
32735;BME280;19112;51.076;3.706;2023-01-26T07:43:20;102442.13;;;5.85;83.02
32735;BME280;19112;51.076;3.706;2023-01-26T07:45:52;102328.31;;;5.28;83.34
32735;BME280;19112;51.076;3.706;2023-01-26T07:48:20;102428.66;;;5.90;83.81
32735;BME280;19112;51.076;3.706;2023-01-26T07:50:45;102420.59;;;5.97;83.51
32735;BME280;19112;51.076;3.706;2023-01-26T07:53:15;102273.53;;;5.05;83.71
32735;BME280;19112;51.076;3.706;2023-01-26T07:55:44;102278.38;;;5.00;83.89
32735;BME280;19112;51.076;3.706;2023-01-26T07:58:11;102397.13;;;5.53;84.87
32735;BME280;19112;51.076;3.706;2023-01-26T08:00:38;102432.88;;;5.66;85.78
32735;BME280;19112;51.076;3.706;2023-01-26T08:03:04;102263.72;;;4.68;86.34
32735;BME280;19112;51.076;3.706;2023-01-26T08:05:31;102189.47;;;4.28;87.22
32735;BME280;19112;51.076;3.706;2023-01-26T08:07:58;102416.53;;;5.57;87.52
32735;BME280;19112;51.076;3.706;2023-01-26T08:10:25;102263.19;;;4.72;88.07
32735;BME280;19112;51.076;3.706;2023-01-26T08:12:51;102441.44;;;5.75;88.29
32735;BME280;19112;51.076;3.706;2023-01-26T08:15:17;102447.84;;;5.69;89.11
32735;BME280;19112;51.076;3.706;2023-01-26T08:17:43;102450.69;;;5.72;89.61
32735;BME280;19112;51.076;3.706;2023-01-26T08:20:09;102412.22;;;5.58;90.00
32735;BME280;19112;51.076;3.706;2023-01-26T08:22:35;102352.50;;;5.27;90.32
32735;BME280;19112;51.076;3.706;2023-01-26T08:25:01;102464.94;;;5.87;90.35
32735;BME280;19112;51.076;3.706;2023-01-26T08:27:26;102457.13;;;5.87;91.31
32735;BME280;19112;51.076;3.706;2023-01-26T08:29:52;102467.66;;;5.89;91.63
32735;BME280;19112;51.076;3.706;2023-01-26T08:32:18;102322.28;;;5.17;91.92
32735;BME280;19112;51.076;3.706;2023-01-26T08:34:44;102397.81;;;5.51;93.04
32735;BME280;19112;51.076;3.706;2023-01-26T08:37:09;102460.94;;;6.02;92.92
32735;BME280;19112;51.076;3.706;2023-01-26T08:39:35;102389.25;;;5.64;93.12
32735;BME280;19112;51.076;3.706;2023-01-26T08:42:01;102291.25;;;5.20;92.68
32735;BME280;19112;51.076;3.706;2023-01-26T08:44:27;102397.03;;;5.86;93.13
32735;BME280;19112;51.076;3.706;2023-01-26T08:46:52;102148.34;;;4.56;92.79
32735;BME280;19112;51.076;3.706;2023-01-26T08:49:18;102423.31;;;6.11;93.46
32735;BME280;19112;51.076;3.706;2023-01-26T08:51:44;102196.59;;;4.75;93.41
32735;BME280;19112;51.076;3.706;2023-01-26T08:54:11;102469.91;;;6.40;93.67
32735;BME280;19112;51.076;3.706;2023-01-26T08:56:37;102366.28;;;5.92;93.14
32735;BME280;19112;51.076;3.706;2023-01-26T08:59:03;102429.25;;;6.32;93.54
32735;BME280;19112;51.076;3.706;2023-01-26T09:01:28;102477.19;;;6.67;92.88
32735;BME280;19112;51.076;3.706;2023-01-26T09:03:54;102437.34;;;6.46;92.71
32735;BME280;19112;51.076;3.706;2023-01-26T09:06:21;102298.31;;;5.67;92.99
32735;BME280;19112;51.076;3.706;2023-01-26T09:08:47;102284.13;;;5.63;93.14
32735;BME280;19112;51.076;3.706;2023-01-26T09:11:13;102471.50;;;6.85;92.89
32735;BME280;19112;51.076;3.706;2023-01-26T09:13:39;102419.19;;;6.60;92.97
32735;BME280;19112;51.076;3.706;2023-01-26T09:16:09;102416.00;;;6.75;92.47
32735;BME280;19112;51.076;3.706;2023-01-26T09:18:36;102480.47;;;7.12;92.21
32735;BME280;19112;51.076;3.706;2023-01-26T09:21:07;102438.72;;;7.00;92.26
32735;BME280;19112;51.076;3.706;2023-01-26T09:23:34;102210.41;;;5.64;91.78
32735;BME280;19112;51.076;3.706;2023-01-26T09:26:01;102473.34;;;7.09;92.30
32735;BME280;19112;51.076;3.706;2023-01-26T09:28:28;102219.91;;;5.64;92.12
32735;BME280;19112;51.076;3.706;2023-01-26T09:30:54;102218.81;;;5.60;92.41
32735;BME280;19112;51.076;3.706;2023-01-26T09:33:20;102482.06;;;7.09;92.46
32735;BME280;19112;51.076;3.706;2023-01-26T09:35:48;102434.19;;;6.74;92.43
32735;BME280;19112;51.076;3.706;2023-01-26T09:38:14;102383.00;;;6.41;92.49
32735;BME280;19112;51.076;3.706;2023-01-26T09:46:25;102494.53;;;7.14;92.21
32735;BME280;19112;51.076;3.706;2023-01-26T09:49:15;102470.94;;;7.00;91.92
32735;BME280;19112;51.076;3.706;2023-01-26T09:54:46;102395.72;;;6.83;91.02
32735;BME280;19112;51.076;3.706;2023-01-26T09:57:41;102433.94;;;7.06;90.40
32735;BME280;19112;51.076;3.706;2023-01-26T10:00:27;102423.28;;;6.91;89.93
32735;BME280;19112;51.076;3.706;2023-01-26T10:06:20;102501.97;;;7.56;89.33
32735;BME280;19112;51.076;3.706;2023-01-26T10:08:48;102450.34;;;7.28;88.97
32735;BME280;19112;51.076;3.706;2023-01-26T10:11:46;102287.88;;;6.36;88.55
32735;BME280;19112;51.076;3.706;2023-01-26T10:14:32;102504.84;;;7.47;88.45
32735;BME280;19112;51.076;3.706;2023-01-26T10:17:04;102408.31;;;6.89;88.89
32735;BME280;19112;51.076;3.706;2023-01-26T10:19:38;102426.13;;;6.94;88.38
32735;BME280;19112;51.076;3.706;2023-01-26T10:22:59;102503.06;;;7.46;88.58
32735;BME280;19112;51.076;3.706;2023-01-26T10:24:59;102416.94;;;6.88;88.03
32735;BME280;19112;51.076;3.706;2023-01-26T10:27:27;102501.91;;;7.43;88.12
32735;BME280;19112;51.076;3.706;2023-01-26T10:29:54;102408.63;;;6.81;87.91
32735;BME280;19112;51.076;3.706;2023-01-26T10:32:19;102402.97;;;6.87;88.18
32735;BME280;19112;51.076;3.706;2023-01-26T10:34:48;102535.06;;;7.67;88.01
32735;BME280;19112;51.076;3.706;2023-01-26T10:37:25;102455.38;;;7.25;87.70
32735;BME280;19112;51.076;3.706;2023-01-26T10:40:05;102482.59;;;7.29;87.48
32735;BME280;19112;51.076;3.706;2023-01-26T10:42:34;102489.97;;;7.34;87.94
32735;BME280;19112;51.076;3.706;2023-01-26T10:45:04;102498.63;;;7.33;87.21
32735;BME280;19112;51.076;3.706;2023-01-26T10:47:30;102230.22;;;5.74;87.67
32735;BME280;19112;51.076;3.706;2023-01-26T10:50:21;102439.38;;;6.97;87.47
32735;BME280;19112;51.076;3.706;2023-01-26T10:53:04;102521.03;;;7.67;87.43
32735;BME280;19112;51.076;3.706;2023-01-26T10:55:32;102543.66;;;7.66;86.92
32735;BME280;19112;51.076;3.706;2023-01-26T10:57:58;102364.41;;;6.71;87.48
32735;BME280;19112;51.076;3.706;2023-01-26T11:00:29;102533.66;;;7.72;86.73
32735;BME280;19112;51.076;3.706;2023-01-26T11:05:36;102533.81;;;7.62;87.13
32735;BME280;19112;51.076;3.706;2023-01-26T11:08:02;102549.16;;;7.57;87.07
32735;BME280;19112;51.076;3.706;2023-01-26T11:10:49;102553.44;;;7.69;86.92
32735;BME280;19112;51.076;3.706;2023-01-26T11:13:20;102505.19;;;7.52;87.58
32735;BME280;19112;51.076;3.706;2023-01-26T11:15:48;102501.78;;;7.53;86.59
32735;BME280;19112;51.076;3.706;2023-01-26T11:21:31;102534.13;;;7.78;86.21
32735;BME280;19112;51.076;3.706;2023-01-26T11:24:16;102469.13;;;7.59;86.28
32735;BME280;19112;51.076;3.706;2023-01-26T11:30:32;102520.69;;;8.10;85.93
32735;BME280;19112;51.076;3.706;2023-01-26T11:39:21;102218.66;;;6.52;84.12
32735;BME280;19112;51.076;3.706;2023-01-26T11:42:12;102515.41;;;8.22;84.43
32735;BME280;19112;51.076;3.706;2023-01-26T11:51:06;102518.53;;;8.30;82.92
32735;BME280;19112;51.076;3.706;2023-01-26T12:03:00;102481.41;;;8.35;82.39
32735;BME280;19112;51.076;3.706;2023-01-26T12:05:56;102390.56;;;7.95;81.50
32735;BME280;19112;51.076;3.706;2023-01-26T12:08:38;102481.91;;;8.55;81.03
32735;BME280;19112;51.076;3.706;2023-01-26T12:11:27;102467.09;;;8.30;78.42
32735;BME280;19112;51.076;3.706;2023-01-26T12:14:19;102489.25;;;8.35;78.76
32735;BME280;19112;51.076;3.706;2023-01-26T12:33:10;102297.03;;;7.52;80.13
32735;BME280;19112;51.076;3.706;2023-01-26T12:45:06;102417.88;;;8.25;79.94
32735;BME280;19112;51.076;3.706;2023-01-26T12:47:55;102447.06;;;8.43;80.72
32735;BME280;19112;51.076;3.706;2023-01-26T12:50:45;102451.59;;;8.45;80.35
32735;BME280;19112;51.076;3.706;2023-01-26T12:53:17;102482.09;;;8.45;78.91
32735;BME280;19112;51.076;3.706;2023-01-26T12:55:55;102291.66;;;7.38;79.82
32735;BME280;19112;51.076;3.706;2023-01-26T12:58:31;102474.69;;;8.64;79.37
32735;BME280;19112;51.076;3.706;2023-01-26T13:01:08;102417.47;;;8.44;78.99
32735;BME280;19112;51.076;3.706;2023-01-26T13:04:06;102466.72;;;8.89;78.35
32735;BME280;19112;51.076;3.706;2023-01-26T13:06:32;102359.66;;;8.27;78.34
32735;BME280;19112;51.076;3.706;2023-01-26T13:09:22;102470.25;;;8.76;77.55
32735;BME280;19112;51.076;3.706;2023-01-26T13:11:57;102307.47;;;7.91;77.33
32735;BME280;19112;51.076;3.706;2023-01-26T13:16:57;102069.06;;;6.65;78.17
32735;BME280;19112;51.076;3.706;2023-01-26T13:22:37;102349.13;;;8.39;77.45
32735;BME280;19112;51.076;3.706;2023-01-26T13:25:19;102461.91;;;8.95;77.17
32735;BME280;19112;51.076;3.706;2023-01-26T13:28:00;102065.25;;;6.60;76.90
32735;BME280;19112;51.076;3.706;2023-01-26T13:30:33;102407.31;;;8.61;77.19
32735;BME280;19112;51.076;3.706;2023-01-26T13:33:23;102338.91;;;8.30;76.75
32735;BME280;19112;51.076;3.706;2023-01-26T13:35:51;102466.16;;;9.06;76.75
32735;BME280;19112;51.076;3.706;2023-01-26T13:38:38;102404.38;;;8.83;75.98
32735;BME280;19112;51.076;3.706;2023-01-26T13:41:16;102422.31;;;8.90;75.82
32735;BME280;19112;51.076;3.706;2023-01-26T13:43:49;102422.13;;;8.74;76.22
32735;BME280;19112;51.076;3.706;2023-01-26T13:46:30;102454.75;;;9.06;77.06
32735;BME280;19112;51.076;3.706;2023-01-26T13:48:58;102422.81;;;8.72;77.01
32735;BME280;19112;51.076;3.706;2023-01-26T13:51:27;102459.38;;;8.83;77.01
32735;BME280;19112;51.076;3.706;2023-01-26T13:53:59;102357.72;;;8.25;77.08
32735;BME280;19112;51.076;3.706;2023-01-26T13:56:35;102462.22;;;8.86;76.33
32735;BME280;19112;51.076;3.706;2023-01-26T13:59:15;102205.75;;;7.42;76.43
32735;BME280;19112;51.076;3.706;2023-01-26T14:01:43;102386.06;;;8.44;76.66
32735;BME280;19112;51.076;3.706;2023-01-26T14:04:17;102463.19;;;8.88;75.86
32735;BME280;19112;51.076;3.706;2023-01-26T14:06:51;102425.34;;;8.70;75.98
32735;BME280;19112;51.076;3.706;2023-01-26T14:09:19;102472.47;;;8.83;75.73
32735;BME280;19112;51.076;3.706;2023-01-26T14:12:02;102424.91;;;8.51;75.07
32735;BME280;19112;51.076;3.706;2023-01-26T14:14:32;102435.59;;;8.67;75.81
32735;BME280;19112;51.076;3.706;2023-01-26T14:17:00;102237.25;;;7.57;76.05
32735;BME280;19112;51.076;3.706;2023-01-26T14:19:30;102394.81;;;8.57;76.30
32735;BME280;19112;51.076;3.706;2023-01-26T14:22:00;102467.44;;;9.00;75.85
32735;BME280;19112;51.076;3.706;2023-01-26T14:24:33;102338.31;;;8.34;75.53
32735;BME280;19112;51.076;3.706;2023-01-26T14:27:00;102474.28;;;8.98;76.12
32735;BME280;19112;51.076;3.706;2023-01-26T14:29:29;102401.34;;;8.51;76.01
32735;BME280;19112;51.076;3.706;2023-01-26T14:31:58;102471.19;;;8.90;75.87
32735;BME280;19112;51.076;3.706;2023-01-26T14:34:28;102357.81;;;8.13;75.22
32735;BME280;19112;51.076;3.706;2023-01-26T14:37:15;102472.38;;;8.82;75.27
32735;BME280;19112;51.076;3.706;2023-01-26T14:39:42;102390.72;;;8.23;75.42